| Date | Time | Temp. (oF) | Dew Point (oF) | Rel. Hum. (%) | Press. (in.) | Wind Dir. | Wind Speed (mph) | Hourly Rainfall (in.) |
|
|---|---|---|---|---|---|---|---|---|---|
| 1 | 03/11 | 00:00 | 28 | 9 | 45 | 30.35 | NW | 8 | 0.00 |
| 2 | 03/10 | 23:00 | 29 | 8 | 42 | 30.34 | NW | 8 | 0.00 |
| 3 | 03/10 | 22:00 | 30 | 8 | 40 | 30.33 | WNW | 12 | 0.00 |
| 4 | 03/10 | 21:00 | 31 | 8 | 38 | 30.30 | WNW | 13 | 0.00 |
| 5 | 03/10 | 20:00 | 33 | 8 | 35 | 30.26 | W | 11 | 0.00 |
| 6 | 03/10 | 19:00 | 34 | 8 | 34 | 30.23 | WNW | 9 | 0.00 |
| 7 | 03/10 | 18:00 | 36 | 8 | 31 | 30.17 | W | 5 | 0.00 |
| 8 | 03/10 | 17:00 | 39 | 11 | 32 | 30.11 | SW | 10 | 0.00 |
| 9 | 03/10 | 16:00 | 41 | 11 | 30 | 30.09 | SW | 13 | 0.00 |
| 10 | 03/10 | 15:00 | 42 | 11 | 29 | 30.08 | S | 5 | 0.00 |
| 11 | 03/10 | 14:00 | 41 | 11 | 30 | 30.08 | W | 21 | 0.00 |
| 12 | 03/10 | 13:00 | 41 | 13 | 32 | 30.11 | WSW | 11 | 0.00 |
| 13 | 03/10 | 12:00 | 40 | 15 | 36 | 30.11 | SW | 18 | 0.00 |
| 14 | 03/10 | 11:00 | 39 | 14 | 36 | 30.12 | W | 15 | 0.00 |
| 15 | 03/10 | 10:00 | 38 | 14 | 38 | 30.11 | SSW | 14 | 0.00 |
| 16 | 03/10 | 09:00 | 37 | 16 | 43 | 30.14 | W | 11 | 0.00 |
| 17 | 03/10 | 08:00 | 36 | 16 | 44 | 30.12 | WNW | 7 | 0.00 |
| 18 | 03/10 | 07:00 | 35 | 19 | 53 | 30.11 | W | 8 | 0.00 |
| 19 | 03/10 | 06:00 | 36 | 22 | 58 | 30.09 | WSW | 4 | 0.00 |
| 20 | 03/10 | 05:00 | 37 | 25 | 63 | 30.08 | SW | 4 | 0.00 |
| 21 | 03/10 | 04:00 | 39 | 26 | 60 | 30.05 | WNW | 6 | 0.00 |
| 22 | 03/10 | 03:00 | 44 | 30 | 58 | 30.03 | WNW | 10 | 0.00 |
| 23 | 03/10 | 02:00 | 49 | 37 | 64 | 30.01 | NW | 10 | 0.00 |
| 24 | 03/10 | 01:00 | 54 | 40 | 61 | 29.95 | WSW | 9 | 0.06 |